sensor_id;sensor_type;location;lat;lon;timestamp;P1;durP1;ratioP1;P2;durP2;ratioP2
54557;SDS011;40452;50.080;20.040;2024-01-25T02:56:03;2.42;;;0.90;;
54557;SDS011;40452;50.080;20.040;2024-01-25T02:58:30;1.90;;;0.80;;
54557;SDS011;40452;50.080;20.040;2024-01-25T03:00:56;2.63;;;0.90;;
54557;SDS011;40452;50.080;20.040;2024-01-25T03:03:22;2.58;;;0.90;;
54557;SDS011;40452;50.080;20.040;2024-01-25T03:05:48;2.38;;;0.90;;
54557;SDS011;40452;50.080;20.040;2024-01-25T03:08:14;2.75;;;0.90;;
54557;SDS011;40452;50.080;20.040;2024-01-25T03:10:40;2.72;;;0.90;;
54557;SDS011;40452;50.080;20.040;2024-01-25T03:13:06;3.53;;;0.90;;
54557;SDS011;40452;50.080;20.040;2024-01-25T03:15:32;2.25;;;0.70;;
54557;SDS011;40452;50.080;20.040;2024-01-25T03:17:58;2.20;;;0.98;;
54557;SDS011;40452;50.080;20.040;2024-01-25T03:20:24;2.47;;;1.00;;
54557;SDS011;40452;50.080;20.040;2024-01-25T03:22:50;3.00;;;0.80;;
54557;SDS011;40452;50.080;20.040;2024-01-25T03:25:16;2.03;;;1.00;;
54557;SDS011;40452;50.080;20.040;2024-01-25T03:27:42;2.03;;;0.90;;
54557;SDS011;40452;50.080;20.040;2024-01-25T03:30:08;3.38;;;1.17;;
54557;SDS011;40452;50.080;20.040;2024-01-25T03:32:35;2.40;;;0.90;;
54557;SDS011;40452;50.080;20.040;2024-01-25T03:35:01;2.15;;;1.00;;
54557;SDS011;40452;50.080;20.040;2024-01-25T03:37:27;2.50;;;1.00;;
54557;SDS011;40452;50.080;20.040;2024-01-25T03:39:53;1.60;;;0.75;;
54557;SDS011;40452;50.080;20.040;2024-01-25T03:42:19;2.92;;;1.00;;
54557;SDS011;40452;50.080;20.040;2024-01-25T03:44:45;2.40;;;0.80;;
54557;SDS011;40452;50.080;20.040;2024-01-25T03:47:12;1.90;;;0.80;;
54557;SDS011;40452;50.080;20.040;2024-01-25T03:49:38;2.92;;;1.00;;
54557;SDS011;40452;50.080;20.040;2024-01-25T03:52:04;3.38;;;0.88;;
54557;SDS011;40452;50.080;20.040;2024-01-25T03:54:31;1.92;;;0.77;;
54557;SDS011;40452;50.080;20.040;2024-01-25T03:56:57;1.67;;;0.80;;
54557;SDS011;40452;50.080;20.040;2024-01-25T03:59:23;1.88;;;0.80;;
54557;SDS011;40452;50.080;20.040;2024-01-25T04:01:49;1.90;;;0.88;;
54557;SDS011;40452;50.080;20.040;2024-01-25T04:04:15;3.33;;;1.00;;
54557;SDS011;40452;50.080;20.040;2024-01-25T04:06:41;2.70;;;0.90;;
54557;SDS011;40452;50.080;20.040;2024-01-25T04:09:08;1.83;;;0.85;;
54557;SDS011;40452;50.080;20.040;2024-01-25T04:11:34;1.58;;;0.80;;
54557;SDS011;40452;50.080;20.040;2024-01-25T04:14:00;2.78;;;0.90;;
54557;SDS011;40452;50.080;20.040;2024-01-25T04:16:26;2.80;;;0.90;;
54557;SDS011;40452;50.080;20.040;2024-01-25T04:18:52;2.17;;;0.80;;
54557;SDS011;40452;50.080;20.040;2024-01-25T04:21:18;1.80;;;0.70;;
54557;SDS011;40452;50.080;20.040;2024-01-25T04:23:44;3.03;;;0.90;;
54557;SDS011;40452;50.080;20.040;2024-01-25T04:26:10;1.65;;;0.68;;
54557;SDS011;40452;50.080;20.040;2024-01-25T04:28:36;2.00;;;0.68;;
54557;SDS011;40452;50.080;20.040;2024-01-25T04:31:02;3.72;;;0.80;;
54557;SDS011;40452;50.080;20.040;2024-01-25T04:33:29;2.08;;;0.70;;
54557;SDS011;40452;50.080;20.040;2024-01-25T04:35:55;1.92;;;0.82;;
54557;SDS011;40452;50.080;20.040;2024-01-25T04:38:21;3.15;;;0.90;;
54557;SDS011;40452;50.080;20.040;2024-01-25T04:40:47;2.50;;;0.68;;
54557;SDS011;40452;50.080;20.040;2024-01-25T04:43:13;2.78;;;0.90;;
54557;SDS011;40452;50.080;20.040;2024-01-25T04:45:39;2.70;;;1.00;;
54557;SDS011;40452;50.080;20.040;2024-01-25T04:48:06;2.45;;;0.95;;
54557;SDS011;40452;50.080;20.040;2024-01-25T04:50:32;3.85;;;0.75;;
54557;SDS011;40452;50.080;20.040;2024-01-25T04:52:58;1.52;;;0.65;;
54557;SDS011;40452;50.080;20.040;2024-01-25T04:55:24;2.67;;;0.70;;
54557;SDS011;40452;50.080;20.040;2024-01-25T04:57:50;2.75;;;0.82;;
54557;SDS011;40452;50.080;20.040;2024-01-25T05:00:18;1.30;;;0.50;;
54557;SDS011;40452;50.080;20.040;2024-01-25T05:02:44;2.08;;;0.85;;
54557;SDS011;40452;50.080;20.040;2024-01-25T05:05:10;1.98;;;0.73;;
54557;SDS011;40452;50.080;20.040;2024-01-25T05:07:36;1.92;;;0.80;;
54557;SDS011;40452;50.080;20.040;2024-01-25T05:10:02;6.85;;;1.25;;
54557;SDS011;40452;50.080;20.040;2024-01-25T05:12:28;3.10;;;1.08;;
54557;SDS011;40452;50.080;20.040;2024-01-25T05:14:54;5.38;;;0.90;;
54557;SDS011;40452;50.080;20.040;2024-01-25T05:17:20;4.50;;;0.95;;
54557;SDS011;40452;50.080;20.040;2024-01-25T05:19:46;4.35;;;1.30;;
54557;SDS011;40452;50.080;20.040;2024-01-25T05:22:12;2.40;;;0.98;;
54557;SDS011;40452;50.080;20.040;2024-01-25T05:24:38;1.65;;;0.73;;
54557;SDS011;40452;50.080;20.040;2024-01-25T05:27:04;5.88;;;1.00;;
54557;SDS011;40452;50.080;20.040;2024-01-25T05:29:30;1.50;;;0.80;;
54557;SDS011;40452;50.080;20.040;2024-01-25T05:31:56;4.18;;;0.90;;
54557;SDS011;40452;50.080;20.040;2024-01-25T05:34:22;4.32;;;0.85;;
54557;SDS011;40452;50.080;20.040;2024-01-25T05:36:48;15.85;;;1.10;;
54557;SDS011;40452;50.080;20.040;2024-01-25T05:39:15;3.05;;;1.05;;
54557;SDS011;40452;50.080;20.040;2024-01-25T05:41:42;2.13;;;0.90;;
54557;SDS011;40452;50.080;20.040;2024-01-25T05:44:10;3.35;;;1.00;;
54557;SDS011;40452;50.080;20.040;2024-01-25T05:46:36;3.88;;;1.10;;
54557;SDS011;40452;50.080;20.040;2024-01-25T05:49:02;4.32;;;1.10;;
54557;SDS011;40452;50.080;20.040;2024-01-25T05:51:28;4.50;;;1.35;;
54557;SDS011;40452;50.080;20.040;2024-01-25T05:53:54;5.07;;;1.65;;
54557;SDS011;40452;50.080;20.040;2024-01-25T05:56:20;4.32;;;1.50;;
54557;SDS011;40452;50.080;20.040;2024-01-25T05:58:46;3.95;;;1.40;;
54557;SDS011;40452;50.080;20.040;2024-01-25T06:01:12;6.05;;;1.73;;
54557;SDS011;40452;50.080;20.040;2024-01-25T06:03:38;3.53;;;1.60;;
54557;SDS011;40452;50.080;20.040;2024-01-25T06:06:04;4.18;;;1.58;;
54557;SDS011;40452;50.080;20.040;2024-01-25T06:08:32;4.32;;;1.67;;
54557;SDS011;40452;50.080;20.040;2024-01-25T06:10:59;3.70;;;1.42;;
54557;SDS011;40452;50.080;20.040;2024-01-25T06:13:25;4.10;;;1.27;;
54557;SDS011;40452;50.080;20.040;2024-01-25T06:15:51;4.50;;;1.52;;
54557;SDS011;40452;50.080;20.040;2024-01-25T06:18:17;3.78;;;1.45;;
54557;SDS011;40452;50.080;20.040;2024-01-25T06:20:43;5.30;;;1.80;;
54557;SDS011;40452;50.080;20.040;2024-01-25T06:23:09;5.82;;;1.70;;
54557;SDS011;40452;50.080;20.040;2024-01-25T06:25:35;4.43;;;1.50;;
54557;SDS011;40452;50.080;20.040;2024-01-25T06:28:02;3.00;;;1.48;;
54557;SDS011;40452;50.080;20.040;2024-01-25T06:30:29;3.90;;;1.63;;
54557;SDS011;40452;50.080;20.040;2024-01-25T06:32:55;6.43;;;1.70;;
54557;SDS011;40452;50.080;20.040;2024-01-25T06:35:21;4.45;;;1.90;;
54557;SDS011;40452;50.080;20.040;2024-01-25T06:37:47;4.35;;;1.70;;
54557;SDS011;40452;50.080;20.040;2024-01-25T06:40:13;3.80;;;1.58;;
54557;SDS011;40452;50.080;20.040;2024-01-25T06:42:39;5.82;;;1.90;;
54557;SDS011;40452;50.080;20.040;2024-01-25T06:45:05;3.35;;;1.60;;
54557;SDS011;40452;50.080;20.040;2024-01-25T06:47:31;5.30;;;1.95;;
54557;SDS011;40452;50.080;20.040;2024-01-25T06:49:58;5.40;;;2.00;;
54557;SDS011;40452;50.080;20.040;2024-01-25T06:52:23;7.22;;;2.05;;
54557;SDS011;40452;50.080;20.040;2024-01-25T06:54:49;4.18;;;1.85;;
54557;SDS011;40452;50.080;20.040;2024-01-25T06:57:16;5.85;;;2.00;;
54557;SDS011;40452;50.080;20.040;2024-01-25T06:59:42;4.75;;;1.88;;
54557;SDS011;40452;50.080;20.040;2024-01-25T07:02:08;6.05;;;2.10;;
54557;SDS011;40452;50.080;20.040;2024-01-25T07:04:34;5.30;;;2.20;;
54557;SDS011;40452;50.080;20.040;2024-01-25T07:07:00;5.90;;;2.08;;
54557;SDS011;40452;50.080;20.040;2024-01-25T07:09:26;5.95;;;1.83;;
54557;SDS011;40452;50.080;20.040;2024-01-25T07:11:52;3.78;;;1.83;;
54557;SDS011;40452;50.080;20.040;2024-01-25T07:14:18;5.68;;;2.00;;
54557;SDS011;40452;50.080;20.040;2024-01-25T07:16:44;5.57;;;2.10;;
54557;SDS011;40452;50.080;20.040;2024-01-25T07:19:10;4.38;;;1.73;;
54557;SDS011;40452;50.080;20.040;2024-01-25T07:21:36;3.88;;;1.63;;
54557;SDS011;40452;50.080;20.040;2024-01-25T07:24:02;9.48;;;1.95;;
54557;SDS011;40452;50.080;20.040;2024-01-25T07:26:32;3.63;;;1.60;;
54557;SDS011;40452;50.080;20.040;2024-01-25T07:28:58;4.47;;;1.92;;
54557;SDS011;40452;50.080;20.040;2024-01-25T07:31:27;4.70;;;1.90;;
54557;SDS011;40452;50.080;20.040;2024-01-25T07:33:53;4.85;;;1.98;;
54557;SDS011;40452;50.080;20.040;2024-01-25T07:36:20;4.00;;;1.55;;
54557;SDS011;40452;50.080;20.040;2024-01-25T07:38:46;5.13;;;1.80;;
54557;SDS011;40452;50.080;20.040;2024-01-25T07:41:13;4.05;;;1.80;;
54557;SDS011;40452;50.080;20.040;2024-01-25T07:43:39;3.75;;;1.70;;
54557;SDS011;40452;50.080;20.040;2024-01-25T07:46:05;4.53;;;2.28;;
54557;SDS011;40452;50.080;20.040;2024-01-25T07:48:32;4.03;;;1.58;;
54557;SDS011;40452;50.080;20.040;2024-01-25T07:50:58;3.83;;;1.80;;
54557;SDS011;40452;50.080;20.040;2024-01-25T07:53:24;6.00;;;1.95;;
54557;SDS011;40452;50.080;20.040;2024-01-25T07:55:50;3.58;;;1.80;;
54557;SDS011;40452;50.080;20.040;2024-01-25T07:58:16;5.72;;;2.20;;
54557;SDS011;40452;50.080;20.040;2024-01-25T08:00:42;3.70;;;1.60;;
54557;SDS011;40452;50.080;20.040;2024-01-25T08:03:08;3.33;;;1.70;;
54557;SDS011;40452;50.080;20.040;2024-01-25T08:05:34;4.95;;;1.80;;
54557;SDS011;40452;50.080;20.040;2024-01-25T08:08:00;4.47;;;1.90;;
54557;SDS011;40452;50.080;20.040;2024-01-25T08:10:26;4.05;;;1.40;;
54557;SDS011;40452;50.080;20.040;2024-01-25T08:12:52;3.63;;;1.50;;
54557;SDS011;40452;50.080;20.040;2024-01-25T08:15:18;5.28;;;1.73;;
54557;SDS011;40452;50.080;20.040;2024-01-25T08:17:45;3.38;;;1.55;;
54557;SDS011;40452;50.080;20.040;2024-01-25T08:20:11;4.32;;;1.45;;
54557;SDS011;40452;50.080;20.040;2024-01-25T08:22:38;3.95;;;1.65;;
54557;SDS011;40452;50.080;20.040;2024-01-25T08:25:06;6.28;;;1.60;;
54557;SDS011;40452;50.080;20.040;2024-01-25T08:27:32;3.35;;;1.40;;
54557;SDS011;40452;50.080;20.040;2024-01-25T08:29:59;4.75;;;1.70;;
54557;SDS011;40452;50.080;20.040;2024-01-25T08:32:25;4.22;;;1.50;;
54557;SDS011;40452;50.080;20.040;2024-01-25T08:34:51;3.65;;;1.40;;
54557;SDS011;40452;50.080;20.040;2024-01-25T08:37:17;3.85;;;1.55;;
54557;SDS011;40452;50.080;20.040;2024-01-25T08:39:43;3.63;;;1.48;;
54557;SDS011;40452;50.080;20.040;2024-01-25T08:42:10;4.20;;;1.50;;
54557;SDS011;40452;50.080;20.040;2024-01-25T14:27:22;10.88;;;3.50;;
54557;SDS011;40452;50.080;20.040;2024-01-25T14:29:48;10.25;;;3.35;;
54557;SDS011;40452;50.080;20.040;2024-01-25T14:32:14;8.13;;;3.50;;
54557;SDS011;40452;50.080;20.040;2024-01-25T14:34:42;7.47;;;3.10;;
54557;SDS011;40452;50.080;20.040;2024-01-25T14:37:08;11.18;;;2.70;;
54557;SDS011;40452;50.080;20.040;2024-01-25T14:39:36;6.00;;;2.90;;
54557;SDS011;40452;50.080;20.040;2024-01-25T14:42:02;9.70;;;3.13;;
54557;SDS011;40452;50.080;20.040;2024-01-25T14:44:29;7.22;;;2.85;;
54557;SDS011;40452;50.080;20.040;2024-01-25T14:46:55;7.30;;;2.45;;
54557;SDS011;40452;50.080;20.040;2024-01-25T14:49:24;9.43;;;2.95;;
54557;SDS011;40452;50.080;20.040;2024-01-25T14:51:50;7.55;;;2.78;;
54557;SDS011;40452;50.080;20.040;2024-01-25T14:54:16;6.22;;;2.50;;
54557;SDS011;40452;50.080;20.040;2024-01-25T14:56:42;8.32;;;3.03;;
54557;SDS011;40452;50.080;20.040;2024-01-25T14:59:09;7.28;;;3.13;;
54557;SDS011;40452;50.080;20.040;2024-01-25T15:01:35;7.55;;;2.97;;
54557;SDS011;40452;50.080;20.040;2024-01-25T15:04:01;7.32;;;3.00;;
54557;SDS011;40452;50.080;20.040;2024-01-25T15:06:27;8.75;;;3.08;;
54557;SDS011;40452;50.080;20.040;2024-01-25T15:08:53;4.68;;;2.28;;
54557;SDS011;40452;50.080;20.040;2024-01-25T15:11:19;6.55;;;2.53;;
54557;SDS011;40452;50.080;20.040;2024-01-25T15:13:45;7.45;;;3.20;;
54557;SDS011;40452;50.080;20.040;2024-01-25T15:16:11;6.72;;;2.85;;
54557;SDS011;40452;50.080;20.040;2024-01-25T15:18:37;6.95;;;2.60;;
54557;SDS011;40452;50.080;20.040;2024-01-25T15:21:03;10.68;;;3.20;;
54557;SDS011;40452;50.080;20.040;2024-01-25T15:23:29;7.38;;;2.88;;
54557;SDS011;40452;50.080;20.040;2024-01-25T15:25:55;12.38;;;2.70;;
54557;SDS011;40452;50.080;20.040;2024-01-25T15:28:22;5.75;;;2.60;;
54557;SDS011;40452;50.080;20.040;2024-01-25T15:30:48;7.25;;;2.65;;
54557;SDS011;40452;50.080;20.040;2024-01-25T15:33:14;8.48;;;3.00;;
54557;SDS011;40452;50.080;20.040;2024-01-25T15:35:40;6.93;;;2.70;;
54557;SDS011;40452;50.080;20.040;2024-01-25T15:38:06;8.77;;;3.28;;
54557;SDS011;40452;50.080;20.040;2024-01-25T15:40:32;7.35;;;2.88;;
54557;SDS011;40452;50.080;20.040;2024-01-25T15:42:58;6.70;;;3.13;;
54557;SDS011;40452;50.080;20.040;2024-01-25T15:45:24;7.35;;;3.58;;
54557;SDS011;40452;50.080;20.040;2024-01-25T15:47:50;7.70;;;2.92;;
54557;SDS011;40452;50.080;20.040;2024-01-25T15:50:16;5.90;;;2.70;;
54557;SDS011;40452;50.080;20.040;2024-01-25T15:52:45;9.50;;;3.10;;
54557;SDS011;40452;50.080;20.040;2024-01-25T15:55:12;8.38;;;3.10;;
54557;SDS011;40452;50.080;20.040;2024-01-25T15:57:41;6.32;;;3.28;;
54557;SDS011;40452;50.080;20.040;2024-01-25T16:00:08;7.15;;;2.72;;
54557;SDS011;40452;50.080;20.040;2024-01-25T16:02:34;7.82;;;3.20;;
54557;SDS011;40452;50.080;20.040;2024-01-25T16:05:00;6.72;;;2.75;;
54557;SDS011;40452;50.080;20.040;2024-01-25T16:07:26;8.30;;;3.03;;
54557;SDS011;40452;50.080;20.040;2024-01-25T16:09:51;7.78;;;2.58;;
54557;SDS011;40452;50.080;20.040;2024-01-25T16:12:18;8.18;;;2.92;;
54557;SDS011;40452;50.080;20.040;2024-01-25T16:14:45;5.68;;;2.63;;
54557;SDS011;40452;50.080;20.040;2024-01-25T16:17:11;7.65;;;2.80;;
54557;SDS011;40452;50.080;20.040;2024-01-25T16:19:39;6.53;;;2.78;;
54557;SDS011;40452;50.080;20.040;2024-01-25T16:22:05;7.40;;;2.67;;
54557;SDS011;40452;50.080;20.040;2024-01-25T16:24:32;7.65;;;2.90;;
54557;SDS011;40452;50.080;20.040;2024-01-25T16:26:58;7.57;;;2.60;;
54557;SDS011;40452;50.080;20.040;2024-01-25T16:29:24;5.63;;;2.72;;
54557;SDS011;40452;50.080;20.040;2024-01-25T16:31:50;6.97;;;3.22;;
54557;SDS011;40452;50.080;20.040;2024-01-25T16:34:16;7.20;;;3.25;;
54557;SDS011;40452;50.080;20.040;2024-01-25T16:36:42;8.18;;;3.38;;
54557;SDS011;40452;50.080;20.040;2024-01-25T16:39:08;7.35;;;3.47;;
54557;SDS011;40452;50.080;20.040;2024-01-25T16:41:34;9.95;;;3.53;;
54557;SDS011;40452;50.080;20.040;2024-01-25T16:44:00;11.55;;;4.25;;
54557;SDS011;40452;50.080;20.040;2024-01-25T16:46:26;8.52;;;4.38;;
54557;SDS011;40452;50.080;20.040;2024-01-25T16:48:55;11.30;;;4.72;;
54557;SDS011;40452;50.080;20.040;2024-01-25T16:51:21;13.00;;;5.10;;
54557;SDS011;40452;50.080;20.040;2024-01-25T16:53:47;11.57;;;5.05;;
54557;SDS011;40452;50.080;20.040;2024-01-25T16:56:13;9.15;;;4.80;;
54557;SDS011;40452;50.080;20.040;2024-01-25T16:58:39;9.82;;;4.80;;
54557;SDS011;40452;50.080;20.040;2024-01-25T17:01:05;10.10;;;4.88;;
54557;SDS011;40452;50.080;20.040;2024-01-25T17:03:31;9.45;;;4.88;;
54557;SDS011;40452;50.080;20.040;2024-01-25T17:05:57;9.00;;;4.32;;
54557;SDS011;40452;50.080;20.040;2024-01-25T17:08:23;9.48;;;4.63;;
54557;SDS011;40452;50.080;20.040;2024-01-25T17:10:49;9.20;;;4.68;;
54557;SDS011;40452;50.080;20.040;2024-01-25T17:13:15;9.85;;;4.40;;
54557;SDS011;40452;50.080;20.040;2024-01-25T17:15:42;6.85;;;3.88;;
54557;SDS011;40452;50.080;20.040;2024-01-25T17:18:08;7.78;;;3.95;;
54557;SDS011;40452;50.080;20.040;2024-01-25T17:20:34;10.10;;;4.43;;
54557;SDS011;40452;50.080;20.040;2024-01-25T17:23:00;8.02;;;4.30;;
54557;SDS011;40452;50.080;20.040;2024-01-25T17:25:29;11.00;;;4.07;;
54557;SDS011;40452;50.080;20.040;2024-01-25T17:27:55;6.85;;;3.67;;
54557;SDS011;40452;50.080;20.040;2024-01-25T17:30:21;9.05;;;3.72;;
54557;SDS011;40452;50.080;20.040;2024-01-25T17:32:47;8.77;;;4.63;;
54557;SDS011;40452;50.080;20.040;2024-01-25T17:35:14;7.70;;;4.10;;
54557;SDS011;40452;50.080;20.040;2024-01-25T17:37:40;8.30;;;5.13;;
54557;SDS011;40452;50.080;20.040;2024-01-25T17:40:06;10.93;;;5.15;;
54557;SDS011;40452;50.080;20.040;2024-01-25T17:42:32;10.25;;;4.95;;
54557;SDS011;40452;50.080;20.040;2024-01-25T17:44:58;11.05;;;5.32;;
54557;SDS011;40452;50.080;20.040;2024-01-25T17:47:24;15.77;;;6.20;;
54557;SDS011;40452;50.080;20.040;2024-01-25T17:49:50;16.50;;;6.22;;
54557;SDS011;40452;50.080;20.040;2024-01-25T17:52:16;17.08;;;6.03;;
54557;SDS011;40452;50.080;20.040;2024-01-25T17:54:42;14.00;;;6.15;;
54557;SDS011;40452;50.080;20.040;2024-01-25T17:57:11;14.80;;;6.60;;
54557;SDS011;40452;50.080;20.040;2024-01-25T17:59:37;12.68;;;6.32;;
54557;SDS011;40452;50.080;20.040;2024-01-25T18:02:03;14.80;;;6.78;;
54557;SDS011;40452;50.080;20.040;2024-01-25T18:04:31;12.95;;;7.07;;
54557;SDS011;40452;50.080;20.040;2024-01-25T18:06:57;13.55;;;6.50;;
54557;SDS011;40452;50.080;20.040;2024-01-25T18:09:23;17.20;;;6.35;;
54557;SDS011;40452;50.080;20.040;2024-01-25T18:11:49;11.65;;;5.80;;
54557;SDS011;40452;50.080;20.040;2024-01-25T18:14:16;12.73;;;6.35;;
54557;SDS011;40452;50.080;20.040;2024-01-25T18:16:42;12.93;;;6.05;;
54557;SDS011;40452;50.080;20.040;2024-01-25T18:19:08;12.00;;;5.85;;
54557;SDS011;40452;50.080;20.040;2024-01-25T18:21:39;12.48;;;6.05;;
54557;SDS011;40452;50.080;20.040;2024-01-25T18:24:05;10.50;;;5.95;;
54557;SDS011;40452;50.080;20.040;2024-01-25T18:26:31;14.40;;;5.70;;
54557;SDS011;40452;50.080;20.040;2024-01-25T18:28:57;12.57;;;6.07;;
54557;SDS011;40452;50.080;20.040;2024-01-25T18:31:23;12.15;;;5.80;;
54557;SDS011;40452;50.080;20.040;2024-01-25T18:33:49;11.68;;;5.25;;
54557;SDS011;40452;50.080;20.040;2024-01-25T18:36:15;12.38;;;5.88;;
54557;SDS011;40452;50.080;20.040;2024-01-25T18:38:41;10.75;;;5.38;;
54557;SDS011;40452;50.080;20.040;2024-01-25T18:41:10;12.52;;;5.43;;
54557;SDS011;40452;50.080;20.040;2024-01-25T18:43:36;9.43;;;5.20;;
54557;SDS011;40452;50.080;20.040;2024-01-25T18:46:03;9.40;;;5.45;;
54557;SDS011;40452;50.080;20.040;2024-01-25T18:48:29;12.05;;;5.55;;
54557;SDS011;40452;50.080;20.040;2024-01-25T18:50:56;11.23;;;5.38;;
54557;SDS011;40452;50.080;20.040;2024-01-25T18:53:22;9.15;;;5.00;;
54557;SDS011;40452;50.080;20.040;2024-01-25T18:55:48;9.00;;;4.85;;
54557;SDS011;40452;50.080;20.040;2024-01-25T18:58:14;9.57;;;4.95;;
54557;SDS011;40452;50.080;20.040;2024-01-25T19:00:40;9.05;;;4.75;;
54557;SDS011;40452;50.080;20.040;2024-01-25T19:03:10;10.27;;;4.85;;
54557;SDS011;40452;50.080;20.040;2024-01-25T19:05:43;8.65;;;4.93;;
54557;SDS011;40452;50.080;20.040;2024-01-25T19:08:10;8.57;;;4.90;;
54557;SDS011;40452;50.080;20.040;2024-01-25T19:10:36;8.23;;;4.55;;
54557;SDS011;40452;50.080;20.040;2024-01-25T19:13:02;9.23;;;4.75;;
54557;SDS011;40452;50.080;20.040;2024-01-25T19:15:28;9.10;;;4.85;;
54557;SDS011;40452;50.080;20.040;2024-01-25T19:17:54;11.88;;;4.57;;
54557;SDS011;40452;50.080;20.040;2024-01-25T19:20:20;10.02;;;4.90;;
54557;SDS011;40452;50.080;20.040;2024-01-25T19:22:46;10.25;;;4.80;;
54557;SDS011;40452;50.080;20.040;2024-01-25T19:25:12;7.53;;;4.60;;
54557;SDS011;40452;50.080;20.040;2024-01-25T19:27:38;7.72;;;4.90;;
54557;SDS011;40452;50.080;20.040;2024-01-25T19:30:05;10.18;;;4.45;;
54557;SDS011;40452;50.080;20.040;2024-01-25T19:32:32;8.23;;;4.30;;
54557;SDS011;40452;50.080;20.040;2024-01-25T19:34:58;13.48;;;6.38;;
54557;SDS011;40452;50.080;20.040;2024-01-25T19:37:24;7.38;;;4.32;;
54557;SDS011;40452;50.080;20.040;2024-01-25T19:39:50;8.07;;;4.28;;
54557;SDS011;40452;50.080;20.040;2024-01-25T19:42:16;8.63;;;4.15;;
54557;SDS011;40452;50.080;20.040;2024-01-25T19:44:42;8.65;;;4.05;;
54557;SDS011;40452;50.080;20.040;2024-01-25T19:47:08;7.50;;;4.30;;
54557;SDS011;40452;50.080;20.040;2024-01-25T19:49:34;7.97;;;4.35;;
54557;SDS011;40452;50.080;20.040;2024-01-25T19:52:00;8.57;;;3.97;;
54557;SDS011;40452;50.080;20.040;2024-01-25T19:54:28;8.05;;;4.47;;
54557;SDS011;40452;50.080;20.040;2024-01-25T19:56:54;8.05;;;4.10;;
54557;SDS011;40452;50.080;20.040;2024-01-25T19:59:20;7.72;;;4.38;;
54557;SDS011;40452;50.080;20.040;2024-01-25T20:01:47;10.45;;;4.65;;
54557;SDS011;40452;50.080;20.040;2024-01-25T20:04:14;7.45;;;4.05;;
54557;SDS011;40452;50.080;20.040;2024-01-25T20:06:41;7.03;;;3.90;;
54557;SDS011;40452;50.080;20.040;2024-01-25T20:09:07;7.72;;;4.20;;
54557;SDS011;40452;50.080;20.040;2024-01-25T20:11:34;6.07;;;3.72;;
54557;SDS011;40452;50.080;20.040;2024-01-25T20:14:00;8.93;;;3.88;;
54557;SDS011;40452;50.080;20.040;2024-01-25T20:16:26;7.63;;;3.90;;
54557;SDS011;40452;50.080;20.040;2024-01-25T20:18:52;6.72;;;3.70;;
54557;SDS011;40452;50.080;20.040;2024-01-25T20:21:19;9.10;;;3.65;;
54557;SDS011;40452;50.080;20.040;2024-01-25T20:23:45;11.68;;;3.88;;
54557;SDS011;40452;50.080;20.040;2024-01-25T20:26:11;9.93;;;3.85;;
54557;SDS011;40452;50.080;20.040;2024-01-25T20:28:37;8.75;;;3.65;;
54557;SDS011;40452;50.080;20.040;2024-01-25T20:31:04;7.65;;;3.63;;
54557;SDS011;40452;50.080;20.040;2024-01-25T20:33:29;8.38;;;4.03;;
54557;SDS011;40452;50.080;20.040;2024-01-25T20:35:55;8.90;;;3.35;;
54557;SDS011;40452;50.080;20.040;2024-01-25T20:38:21;7.45;;;3.75;;
54557;SDS011;40452;50.080;20.040;2024-01-25T20:40:47;6.57;;;3.38;;
54557;SDS011;40452;50.080;20.040;2024-01-25T20:43:13;7.75;;;3.17;;
54557;SDS011;40452;50.080;20.040;2024-01-25T20:45:39;13.48;;;3.40;;
54557;SDS011;40452;50.080;20.040;2024-01-25T20:48:05;8.50;;;3.40;;
54557;SDS011;40452;50.080;20.040;2024-01-25T20:50:32;6.10;;;3.40;;
54557;SDS011;40452;50.080;20.040;2024-01-25T20:52:58;5.88;;;3.38;;
54557;SDS011;40452;50.080;20.040;2024-01-25T20:55:24;7.30;;;3.42;;
54557;SDS011;40452;50.080;20.040;2024-01-25T20:57:50;7.90;;;3.55;;
54557;SDS011;40452;50.080;20.040;2024-01-25T21:00:19;7.72;;;3.08;;
54557;SDS011;40452;50.080;20.040;2024-01-25T21:02:45;6.95;;;2.90;;
